createdAt,value
2018-06-12T00:00:21.828Z,63.70
2018-06-12T00:02:51.602Z,63.50
2018-06-12T00:05:21.519Z,63.40
2018-06-12T00:07:51.053Z,63.30
2018-06-12T00:10:20.673Z,63.10
2018-06-12T00:12:50.656Z,63.60
2018-06-12T00:15:20.164Z,63.60
2018-06-12T00:17:49.653Z,63.80
2018-06-12T00:20:19.005Z,63.90
2018-06-12T00:22:48.317Z,64.30
2018-06-12T00:25:18.609Z,64.40
2018-06-12T00:27:48.233Z,64.70
2018-06-12T00:30:17.528Z,65.00
2018-06-12T00:32:47.648Z,65.20
2018-06-12T00:35:19.168Z,65.30
2018-06-12T00:37:48.749Z,65.10
2018-06-12T00:40:20.190Z,65.20
2018-06-12T00:42:49.512Z,65.00
2018-06-12T00:45:18.912Z,65.10
2018-06-12T00:47:48.546Z,65.10
2018-06-12T00:50:18.548Z,65.20
2018-06-12T00:52:49.218Z,65.30
2018-06-12T00:57:49.070Z,65.20
2018-06-12T01:00:18.704Z,65.10
2018-06-12T01:02:48.573Z,65.30
2018-06-12T01:05:18.141Z,65.30
2018-06-12T01:10:25.078Z,65.00
2018-06-12T01:12:54.466Z,65.30
2018-06-12T01:15:30.450Z,65.10
2018-06-12T01:18:01.324Z,64.80
2018-06-12T01:20:31.788Z,65.10
2018-06-12T01:23:01.849Z,65.20
2018-06-12T01:25:31.274Z,65.00
2018-06-12T01:28:00.520Z,65.10
2018-06-12T01:30:30.865Z,65.10
2018-06-12T01:33:00.251Z,65.70
2018-06-12T01:35:29.813Z,66.00
2018-06-12T01:38:00.283Z,66.10
2018-06-12T01:40:30.789Z,66.40
2018-06-12T01:43:01.106Z,66.80
2018-06-12T01:45:31.369Z,66.90
2018-06-12T01:48:01.521Z,67.30
2018-06-12T01:50:33.053Z,67.80
2018-06-12T01:53:03.428Z,68.40
2018-06-12T01:55:34.255Z,68.70
2018-06-12T01:58:09.768Z,69.00
2018-06-12T02:00:39.553Z,69.10
2018-06-12T02:03:10.044Z,69.50
2018-06-12T02:05:39.490Z,69.70
2018-06-12T02:08:11.446Z,70.20
2018-06-12T02:13:49.186Z,70.40
2018-06-12T02:19:12.934Z,71.50
2018-06-12T02:21:42.263Z,71.10
2018-06-12T02:24:11.637Z,71.20
2018-06-12T02:26:41.154Z,71.50
2018-06-12T02:29:11.990Z,71.80
2018-06-12T02:31:42.410Z,71.90
2018-06-12T02:34:12.287Z,72.30
2018-06-12T02:36:45.305Z,72.50
2018-06-12T02:39:15.994Z,72.90
2018-06-12T02:41:45.564Z,73.20
2018-06-12T02:44:17.675Z,73.10
2018-06-12T02:46:47.431Z,72.90
2018-06-12T02:49:17.059Z,73.30
2018-06-12T02:51:46.843Z,73.40
2018-06-12T02:54:16.451Z,73.50
2018-06-12T02:56:49.663Z,73.60
2018-06-12T02:59:19.723Z,73.50
2018-06-12T03:01:49.896Z,73.60
2018-06-12T03:04:19.612Z,73.70
2018-06-12T03:06:53.177Z,73.80
2018-06-12T03:09:22.863Z,74.00
2018-06-12T03:11:52.530Z,74.30
2018-06-12T03:14:22.101Z,74.40
2018-06-12T03:16:51.853Z,74.40
2018-06-12T03:19:21.162Z,74.50
2018-06-12T03:21:50.823Z,74.50
2018-06-12T03:24:20.249Z,74.50
2018-06-12T03:26:51.740Z,74.30
2018-06-12T03:29:22.300Z,74.20
2018-06-12T03:31:52.944Z,74.20
2018-06-12T03:34:23.005Z,73.90
2018-06-12T03:39:22.320Z,73.30
2018-06-12T03:41:51.718Z,73.00
2018-06-12T03:44:21.136Z,72.70
2018-06-12T03:46:51.000Z,72.60
2018-06-12T03:49:21.100Z,72.30
2018-06-12T03:51:50.574Z,72.10
2018-06-12T03:54:19.991Z,72.10
2018-06-12T03:56:49.450Z,72.00
2018-06-12T03:59:18.757Z,72.10
2018-06-12T04:01:48.199Z,71.60
2018-06-12T04:04:18.180Z,72.60
2018-06-12T04:06:47.701Z,71.70
2018-06-12T04:09:17.013Z,71.70
2018-06-12T04:11:48.539Z,71.70
2018-06-12T04:14:24.464Z,71.60
2018-06-12T04:19:54.803Z,71.70
2018-06-12T04:22:25.826Z,71.50
2018-06-12T04:24:55.918Z,72.50
2018-06-12T04:27:25.253Z,71.50
2018-06-12T04:29:54.685Z,71.30
2018-06-12T04:32:28.855Z,71.10
2018-06-12T04:34:59.602Z,71.10
2018-06-12T04:37:29.972Z,71.20
2018-06-12T04:39:59.795Z,71.20
2018-06-12T04:42:29.310Z,71.00
2018-06-12T04:45:00.659Z,70.80
2018-06-12T04:47:35.467Z,70.50
2018-06-12T04:50:04.887Z,70.60
2018-06-12T04:52:34.145Z,70.40
2018-06-12T04:55:03.437Z,70.40
2018-06-12T04:57:32.822Z,70.40
2018-06-12T05:00:02.516Z,70.30
2018-06-12T05:02:32.011Z,70.10
2018-06-12T05:05:02.045Z,69.90
2018-06-12T05:07:31.349Z,69.70
2018-06-12T05:10:04.244Z,69.80
2018-06-12T05:12:33.657Z,69.80
2018-06-12T05:15:21.981Z,69.80
2018-06-12T05:17:51.591Z,69.60
2018-06-12T05:20:21.705Z,69.60
2018-06-12T05:22:50.962Z,69.70
2018-06-12T05:25:20.373Z,69.40
2018-06-12T05:27:49.768Z,69.60
2018-06-12T05:30:20.312Z,69.30
2018-06-12T05:32:49.748Z,69.00
2018-06-12T05:35:20.233Z,68.80
2018-06-12T05:37:49.559Z,68.30
2018-06-12T05:40:19.428Z,68.10
2018-06-12T05:42:48.856Z,67.80
2018-06-12T05:45:18.694Z,67.60
2018-06-12T05:47:47.929Z,67.70
2018-06-12T05:50:29.585Z,68.00
2018-06-12T05:53:00.046Z,67.90
2018-06-12T05:55:29.481Z,68.00
2018-06-12T05:57:58.795Z,68.20
2018-06-12T06:00:28.064Z,68.40
2018-06-12T06:03:07.721Z,68.60
2018-06-12T06:05:37.037Z,68.70
2018-06-12T06:08:06.605Z,68.80
2018-06-12T06:10:36.199Z,68.50
2018-06-12T06:13:06.310Z,68.50
2018-06-12T06:15:35.659Z,68.60
2018-06-12T06:18:05.184Z,68.70
2018-06-12T06:20:34.741Z,69.00
2018-06-12T06:23:04.225Z,69.00
2018-06-12T06:25:33.528Z,69.00
2018-06-12T06:28:02.954Z,69.10
2018-06-12T06:30:32.277Z,68.90
2018-06-12T06:33:01.758Z,68.70
2018-06-12T06:35:31.228Z,68.70
2018-06-12T06:38:00.641Z,68.40
2018-06-12T06:40:30.093Z,68.50
2018-06-12T06:42:59.818Z,68.50
2018-06-12T06:45:29.232Z,68.40
2018-06-12T06:47:58.801Z,68.10
2018-06-12T06:50:28.089Z,67.80
2018-06-12T06:52:57.654Z,67.70
2018-06-12T06:55:27.043Z,67.70
2018-06-12T06:57:58.506Z,67.60
2018-06-12T07:00:28.112Z,67.20
2018-06-12T07:02:58.381Z,66.40
2018-06-12T07:05:27.682Z,66.10
2018-06-12T07:07:58.080Z,65.90
2018-06-12T07:10:32.646Z,65.80
2018-06-12T07:13:02.575Z,65.40
2018-06-12T07:15:32.154Z,65.40
2018-06-12T07:18:01.613Z,65.10
2018-06-12T07:20:41.971Z,64.90
2018-06-12T07:23:14.820Z,64.50
2018-06-12T07:25:45.532Z,64.60
2018-06-12T07:30:53.790Z,64.30
2018-06-12T07:33:23.069Z,64.30
2018-06-12T07:36:03.776Z,64.10
2018-06-12T07:38:33.073Z,64.00
2018-06-12T07:41:02.300Z,63.70
2018-06-12T07:43:31.591Z,63.50
2018-06-12T07:46:00.910Z,63.30
2018-06-12T07:48:30.169Z,64.00
2018-06-12T07:51:00.603Z,63.30
2018-06-12T07:53:30.051Z,63.10
2018-06-12T07:55:59.647Z,63.00
2018-06-12T07:58:29.547Z,62.90
2018-06-12T08:00:58.863Z,62.70
2018-06-12T08:03:28.148Z,62.50
2018-06-12T08:05:57.422Z,62.20
2018-06-12T08:08:26.847Z,62.00
2018-06-12T08:10:56.113Z,61.30
2018-06-12T08:13:27.106Z,60.90
2018-06-12T08:15:56.498Z,60.90
2018-06-12T08:18:26.020Z,60.80
2018-06-12T08:20:55.644Z,60.30
2018-06-12T08:23:26.173Z,60.10
2018-06-12T08:25:55.690Z,60.00
2018-06-12T08:28:24.911Z,60.40
2018-06-12T08:30:54.195Z,61.00
2018-06-12T08:33:23.468Z,60.20
2018-06-12T08:35:52.787Z,60.10
2018-06-12T08:38:22.726Z,59.90
2018-06-12T08:40:52.317Z,59.70
2018-06-12T08:43:21.994Z,59.40
2018-06-12T08:45:51.405Z,59.20
2018-06-12T08:48:21.173Z,59.20
2018-06-12T08:50:50.499Z,58.90
2018-06-12T08:53:19.768Z,58.50
2018-06-12T08:55:49.107Z,58.20
2018-06-12T08:58:18.725Z,58.20
2018-06-12T09:00:48.150Z,57.60
2018-06-12T09:03:17.398Z,57.30
2018-06-12T09:05:46.661Z,57.20
2018-06-12T09:08:16.617Z,57.20
2018-06-12T09:10:45.957Z,57.90
2018-06-12T09:13:15.422Z,57.20
2018-06-12T09:15:44.652Z,57.00
2018-06-12T09:18:13.932Z,56.50
2018-06-12T09:20:43.322Z,56.20
2018-06-12T09:23:12.587Z,56.70
2018-06-12T09:25:41.911Z,56.90
2018-06-12T09:28:11.418Z,56.60
2018-06-12T09:30:40.717Z,56.50
2018-06-12T09:33:10.142Z,56.70
2018-06-12T09:35:39.341Z,56.40
2018-06-12T09:38:08.651Z,56.20
2018-06-12T09:40:37.981Z,56.00
2018-06-12T09:43:07.255Z,55.50
2018-06-12T09:45:36.483Z,55.50
2018-06-12T09:48:05.740Z,55.10
2018-06-12T09:50:34.937Z,54.80
2018-06-12T09:53:04.209Z,54.80
2018-06-12T09:55:33.537Z,54.60
2018-06-12T09:58:03.050Z,54.10
2018-06-12T10:00:38.589Z,53.90
2018-06-12T10:03:07.914Z,53.50
2018-06-12T10:05:37.173Z,53.20
2018-06-12T10:08:06.574Z,53.20
2018-06-12T10:10:35.865Z,53.20
2018-06-12T10:13:05.836Z,52.90
2018-06-12T10:15:35.159Z,52.60
2018-06-12T10:18:04.506Z,52.30
2018-06-12T10:20:34.155Z,52.30
2018-06-12T10:23:03.401Z,52.10
2018-06-12T10:25:32.687Z,52.20
2018-06-12T10:28:01.968Z,52.50
2018-06-12T10:30:31.452Z,52.20
2018-06-12T10:33:00.844Z,51.90
2018-06-12T10:35:30.083Z,51.60
2018-06-12T10:37:59.484Z,51.50
2018-06-12T10:40:28.846Z,51.50
2018-06-12T10:42:58.638Z,51.60
2018-06-12T10:45:29.650Z,51.20
2018-06-12T10:47:59.542Z,50.70
2018-06-12T10:50:29.021Z,51.00
2018-06-12T10:52:58.363Z,51.20
2018-06-12T10:55:27.658Z,51.10
2018-06-12T10:57:57.174Z,51.90
2018-06-12T11:00:26.712Z,51.60
2018-06-12T11:02:56.429Z,51.90
2018-06-12T11:05:26.073Z,51.80
2018-06-12T11:07:55.490Z,51.60
2018-06-12T11:10:24.824Z,51.80
2018-06-12T11:12:54.315Z,50.60
2018-06-12T11:15:24.134Z,51.00
2018-06-12T11:17:53.350Z,50.70
2018-06-12T11:20:22.802Z,50.50
2018-06-12T11:22:52.242Z,50.40
2018-06-12T11:25:21.504Z,50.10
2018-06-12T11:28:08.830Z,49.80
2018-06-12T11:30:38.229Z,49.70
2018-06-12T11:33:07.630Z,49.60
2018-06-12T11:35:37.066Z,49.40
2018-06-12T11:38:07.098Z,49.00
2018-06-12T11:40:36.425Z,48.90
2018-06-12T11:43:06.025Z,48.40
2018-06-12T11:45:35.600Z,47.30
2018-06-12T11:48:05.567Z,47.00
2018-06-12T11:50:34.877Z,46.40
2018-06-12T11:53:04.611Z,45.60
2018-06-12T11:55:35.033Z,45.00
2018-06-12T11:58:04.588Z,44.70
2018-06-12T12:00:33.873Z,43.70
2018-06-12T12:03:03.254Z,42.80
2018-06-12T12:05:32.541Z,42.60
2018-06-12T12:08:01.998Z,42.30
2018-06-12T12:10:32.198Z,41.80
2018-06-12T12:13:01.514Z,41.20
2018-06-12T12:15:30.781Z,40.40
2018-06-12T12:18:00.321Z,39.80
2018-06-12T12:20:29.656Z,39.70
2018-06-12T12:22:58.965Z,38.90
2018-06-12T12:25:28.226Z,38.00
2018-06-12T12:27:57.506Z,36.50
2018-06-12T12:30:26.803Z,35.80
2018-06-12T12:32:56.915Z,35.20
2018-06-12T12:35:26.301Z,34.80
2018-06-12T12:37:55.607Z,35.10
2018-06-12T12:42:53.957Z,33.90
2018-06-12T12:45:46.749Z,34.10
2018-06-12T12:48:16.005Z,34.60
2018-06-12T12:50:45.278Z,35.20
2018-06-12T12:53:15.405Z,36.10
2018-06-12T12:55:44.988Z,36.40
2018-06-12T12:58:14.677Z,36.00
2018-06-12T13:00:44.688Z,36.30
2018-06-12T13:03:13.932Z,35.00
2018-06-12T13:05:43.183Z,34.50
2018-06-12T13:08:12.417Z,34.50
2018-06-12T13:10:41.719Z,35.40
2018-06-12T13:13:10.964Z,34.70
2018-06-12T13:15:40.248Z,35.00
2018-06-12T13:18:09.544Z,35.10
2018-06-12T13:20:38.933Z,36.00
2018-06-12T13:23:08.492Z,36.70
2018-06-12T13:25:38.040Z,36.70
2018-06-12T13:28:07.380Z,37.00
2018-06-12T13:30:36.711Z,37.50
2018-06-12T13:33:05.989Z,37.10
2018-06-12T13:35:35.336Z,36.70
2018-06-12T13:38:04.642Z,36.80
2018-06-12T13:40:33.863Z,37.00
2018-06-12T13:43:03.942Z,37.10
2018-06-12T13:45:33.229Z,37.60
2018-06-12T13:48:02.805Z,37.30
2018-06-12T13:50:32.175Z,38.00
2018-06-12T13:53:01.597Z,38.40
2018-06-12T13:55:30.833Z,38.60
2018-06-12T13:58:00.113Z,38.60
2018-06-12T14:00:29.866Z,38.20
2018-06-12T14:02:59.225Z,38.60
2018-06-12T14:05:28.492Z,39.10
2018-06-12T14:07:57.906Z,38.50
2018-06-12T14:10:27.334Z,38.20
2018-06-12T14:12:56.933Z,38.00
2018-06-12T14:15:30.870Z,37.80
2018-06-12T14:18:00.385Z,36.20
2018-06-12T14:20:29.697Z,35.50
2018-06-12T14:23:03.913Z,34.50
2018-06-12T14:25:33.284Z,34.10
2018-06-12T14:28:02.625Z,33.40
2018-06-12T14:30:38.782Z,32.80
2018-06-12T14:33:08.085Z,32.20
2018-06-12T14:35:39.443Z,31.70
2018-06-12T14:38:08.888Z,31.00
2018-06-12T14:40:38.170Z,30.20
2018-06-12T14:43:07.984Z,30.10
2018-06-12T14:45:37.810Z,30.00
2018-06-12T14:50:44.278Z,29.70
2018-06-12T14:53:14.176Z,29.90
2018-06-12T14:55:43.690Z,29.80
2018-06-12T14:58:13.288Z,30.40
2018-06-12T15:00:42.730Z,31.30
2018-06-12T15:03:12.455Z,32.10
2018-06-12T15:05:43.367Z,32.70
2018-06-12T15:08:12.961Z,32.90
2018-06-12T15:10:42.561Z,33.30
2018-06-12T15:13:12.768Z,33.40
2018-06-12T15:18:12.598Z,33.10
2018-06-12T15:20:42.349Z,33.30
2018-06-12T15:23:11.883Z,32.50
2018-06-12T15:25:46.823Z,32.60
2018-06-12T15:28:16.106Z,32.50
2018-06-12T15:30:46.025Z,32.60
2018-06-12T15:33:16.230Z,32.00
2018-06-12T15:35:46.070Z,31.60
2018-06-12T15:38:15.693Z,31.30
2018-06-12T15:40:45.039Z,31.40
2018-06-12T15:43:14.461Z,31.80
2018-06-12T15:45:43.856Z,31.10
2018-06-12T15:48:14.343Z,30.40
2018-06-12T15:50:43.850Z,30.50
2018-06-12T15:53:18.386Z,30.90
2018-06-12T15:55:48.177Z,31.30
2018-06-12T15:58:17.825Z,31.10
2018-06-12T16:00:49.069Z,31.40
2018-06-12T16:03:20.093Z,31.80
2018-06-12T16:08:39.443Z,32.50
2018-06-12T16:11:11.183Z,32.80
2018-06-12T16:13:41.893Z,33.20
2018-06-12T16:16:13.434Z,33.70
2018-06-12T16:18:54.349Z,33.50
2018-06-12T16:21:31.616Z,33.90
2018-06-12T16:24:13.224Z,34.10
2018-06-12T16:26:44.787Z,34.20
2018-06-12T16:29:16.755Z,34.80
2018-06-12T16:31:46.586Z,35.20
2018-06-12T16:34:16.169Z,35.00
2018-06-12T16:36:47.721Z,34.60
2018-06-12T16:39:17.425Z,34.60
2018-06-12T16:41:48.422Z,34.30
2018-06-12T16:44:18.526Z,34.80
2018-06-12T16:46:49.366Z,34.90
2018-06-12T16:49:21.304Z,35.10
2018-06-12T16:51:50.967Z,35.10
2018-06-12T16:54:21.483Z,35.20
2018-06-12T16:56:51.479Z,34.70
2018-06-12T16:59:22.085Z,34.80
2018-06-12T17:01:51.536Z,35.00
2018-06-12T17:04:22.733Z,34.90
2018-06-12T17:06:53.756Z,34.30
2018-06-12T17:09:23.260Z,33.90
2018-06-12T17:11:56.042Z,33.70
2018-06-12T17:17:23.424Z,34.10
2018-06-12T17:20:09.843Z,34.30
2018-06-12T17:22:41.076Z,34.30
2018-06-12T17:25:18.321Z,34.70
2018-06-12T17:27:48.333Z,34.90
2018-06-12T17:30:18.220Z,34.90
2018-06-12T17:32:48.658Z,35.00
2018-06-12T17:35:19.054Z,35.20
2018-06-12T17:37:50.648Z,35.30
2018-06-12T17:40:20.370Z,35.40
2018-06-12T17:42:57.583Z,35.30
2018-06-12T17:45:28.136Z,35.00
2018-06-12T17:48:07.448Z,35.70
2018-06-12T17:50:37.435Z,36.00
2018-06-12T17:53:07.150Z,36.10
2018-06-12T17:55:36.555Z,36.20
2018-06-12T17:58:06.676Z,36.70
2018-06-12T18:00:36.629Z,37.30
2018-06-12T18:03:06.517Z,37.80
2018-06-12T18:05:36.062Z,38.30
2018-06-12T18:08:11.241Z,39.10
2018-06-12T18:10:41.302Z,39.40
2018-06-12T18:13:12.161Z,39.40
2018-06-12T18:15:44.437Z,39.70
2018-06-12T18:18:14.594Z,40.00
2018-06-12T18:20:51.053Z,40.20
2018-06-12T18:23:22.670Z,40.50
2018-06-12T18:25:52.756Z,40.80
2018-06-12T18:28:23.442Z,41.10
2018-06-12T18:30:53.011Z,41.40
2018-06-12T18:33:23.376Z,41.70
2018-06-12T18:35:53.323Z,42.30
2018-06-12T18:38:23.597Z,42.50
2018-06-12T18:41:11.517Z,42.90
2018-06-12T18:43:41.787Z,43.00
2018-06-12T18:46:16.484Z,43.40
2018-06-12T18:48:46.597Z,43.40
2018-06-12T18:51:16.963Z,43.90
2018-06-12T18:53:47.684Z,43.90
2018-06-12T18:56:17.554Z,43.80
2018-06-12T18:59:01.804Z,44.00
2018-06-12T19:01:33.363Z,44.00
2018-06-12T19:04:03.798Z,44.20
2018-06-12T19:06:35.107Z,44.40
2018-06-12T19:09:06.843Z,44.70
2018-06-12T19:11:37.257Z,44.90
2018-06-12T19:14:08.719Z,45.10
2018-06-12T19:16:42.367Z,45.30
2018-06-12T19:19:13.099Z,45.40
2018-06-12T19:21:43.715Z,45.60
2018-06-12T19:24:15.596Z,45.70
2018-06-12T19:26:45.679Z,45.80
2018-06-12T19:29:15.619Z,45.90
2018-06-12T19:31:46.464Z,46.20
2018-06-12T19:34:17.740Z,46.40
2018-06-12T19:36:47.961Z,46.50
2018-06-12T19:39:17.872Z,46.60
2018-06-12T19:41:47.625Z,46.60
2018-06-12T19:44:22.888Z,46.50
2018-06-12T19:46:52.726Z,46.60
2018-06-12T19:49:23.568Z,46.70
2018-06-12T19:51:53.193Z,46.80
2018-06-12T19:54:22.932Z,46.90
2018-06-12T19:56:53.539Z,46.80
2018-06-12T19:59:24.414Z,47.00
2018-06-12T20:01:55.234Z,47.10
2018-06-12T20:04:25.338Z,47.10
2018-06-12T20:06:59.309Z,47.20
2018-06-12T20:09:29.098Z,47.30
2018-06-12T20:12:00.363Z,47.30
2018-06-12T20:14:29.864Z,47.20
2018-06-12T20:17:04.350Z,47.20
2018-06-12T20:19:34.732Z,47.20
2018-06-12T20:22:21.516Z,47.40
2018-06-12T20:24:51.159Z,47.30
2018-06-12T20:27:22.394Z,47.30
2018-06-12T20:29:56.032Z,47.30
2018-06-12T20:32:26.400Z,47.30
2018-06-12T20:34:56.086Z,47.50
2018-06-12T20:37:33.161Z,47.30
2018-06-12T20:40:05.409Z,47.40
2018-06-12T20:42:37.049Z,47.00
2018-06-12T20:45:11.709Z,47.70
2018-06-12T20:47:41.624Z,47.70
2018-06-12T20:50:12.160Z,47.80
2018-06-12T20:52:46.754Z,47.90
2018-06-12T20:55:16.082Z,48.00
2018-06-12T20:57:47.617Z,48.10
2018-06-12T21:00:17.251Z,48.10
2018-06-12T21:02:52.954Z,48.40
2018-06-12T21:05:23.460Z,48.50
2018-06-12T21:07:53.267Z,48.60
2018-06-12T21:10:23.500Z,48.90
2018-06-12T21:12:53.786Z,48.90
2018-06-12T21:15:23.211Z,49.00
2018-06-12T21:17:52.713Z,49.10
2018-06-12T21:20:45.373Z,49.10
2018-06-12T21:23:14.669Z,49.20
2018-06-12T21:25:44.237Z,49.20
2018-06-12T21:28:13.751Z,49.00
2018-06-12T21:30:44.897Z,49.50
2018-06-12T21:33:15.525Z,49.90
2018-06-12T21:35:44.866Z,49.70
2018-06-12T21:38:14.239Z,49.80
2018-06-12T21:40:44.071Z,49.90
2018-06-12T21:43:13.543Z,50.00
2018-06-12T21:45:42.867Z,50.10
2018-06-12T21:48:12.422Z,50.20
2018-06-12T21:50:42.092Z,50.30
2018-06-12T21:53:11.473Z,50.50
2018-06-12T21:55:43.180Z,50.50
2018-06-12T21:58:13.060Z,50.60
2018-06-12T22:00:52.881Z,50.70
2018-06-12T22:03:22.331Z,50.80
2018-06-12T22:05:55.216Z,50.90
2018-06-12T22:08:25.231Z,50.90
2018-06-12T22:10:54.618Z,51.00
2018-06-12T22:13:24.235Z,51.10
2018-06-12T22:15:53.684Z,51.20
2018-06-12T22:18:23.334Z,51.30
2018-06-12T22:21:02.407Z,51.30
2018-06-12T22:23:31.967Z,51.30
2018-06-12T22:26:01.343Z,51.40
2018-06-12T22:28:31.080Z,51.40
2018-06-12T22:31:12.192Z,51.40
2018-06-12T22:33:42.112Z,51.50
2018-06-12T22:36:11.966Z,51.40
2018-06-12T22:38:41.725Z,51.40
2018-06-12T22:41:11.351Z,51.50
2018-06-12T22:43:40.574Z,51.50
2018-06-12T22:46:10.186Z,51.60
2018-06-12T22:48:39.423Z,51.70
2018-06-12T22:51:08.795Z,51.70
2018-06-12T22:53:38.323Z,51.80
2018-06-12T22:56:07.788Z,51.90
2018-06-12T22:58:37.369Z,52.00
2018-06-12T23:01:18.901Z,52.10
2018-06-12T23:03:48.181Z,52.20
2018-06-12T23:06:17.477Z,52.30
2018-06-12T23:08:46.858Z,52.40
2018-06-12T23:11:16.096Z,52.30
2018-06-12T23:13:45.852Z,52.40
2018-06-12T23:16:15.645Z,52.60
2018-06-12T23:18:45.153Z,52.50
2018-06-12T23:21:25.467Z,52.60
2018-06-12T23:23:58.135Z,52.50
2018-06-12T23:26:27.723Z,52.80
2018-06-12T23:28:57.329Z,52.80
2018-06-12T23:33:56.583Z,52.60
2018-06-12T23:36:26.336Z,52.60
2018-06-12T23:38:55.734Z,52.60
2018-06-12T23:43:55.022Z,52.50
2018-06-12T23:46:25.582Z,52.40
2018-06-12T23:48:59.371Z,52.60
2018-06-12T23:51:28.596Z,52.60
2018-06-12T23:53:57.832Z,52.60
2018-06-12T23:56:27.805Z,52.60
2018-06-12T23:58:57.299Z,52.70
